createdAt,value
2023-01-10T07:03:13.771Z,96625.10
2023-01-10T07:17:36.140Z,96629.77
2023-01-10T07:20:04.442Z,96633.29
2023-01-10T07:22:32.530Z,96645.73
2023-01-10T07:25:01.179Z,96641.60
2023-01-10T07:27:32.052Z,96633.08
2023-01-10T07:30:00.992Z,96623.42
2023-01-10T07:32:29.352Z,96626.48
2023-01-10T07:34:57.507Z,96630.18
2023-01-10T07:37:28.164Z,96625.54
2023-01-10T07:39:58.295Z,96630.42
2023-01-10T07:42:27.219Z,96623.02
2023-01-10T07:44:55.308Z,96615.98
2023-01-10T07:47:23.642Z,96621.19
2023-01-10T07:49:51.814Z,96629.05
2023-01-10T07:52:20.629Z,96626.43
2023-01-10T07:54:50.102Z,96630.47
2023-01-10T07:57:19.858Z,96636.04
2023-01-10T07:59:47.858Z,96634.05
2023-01-10T08:02:16.578Z,96621.32
2023-01-10T08:04:44.947Z,96615.69
2023-01-10T08:07:13.114Z,96618.44
2023-01-10T08:09:41.246Z,96629.65
2023-01-10T08:12:09.454Z,96635.51
2023-01-10T08:14:39.716Z,96640.42
2023-01-10T08:17:08.738Z,96646.37
2023-01-10T08:19:36.827Z,96651.84
2023-01-10T08:22:06.939Z,96665.48
2023-01-10T08:24:40.441Z,96680.61
2023-01-10T08:27:08.633Z,96690.90
2023-01-10T08:29:38.428Z,96693.38
2023-01-10T08:32:06.656Z,96693.83
2023-01-10T08:34:35.112Z,96700.05
2023-01-10T08:37:04.013Z,96701.27
2023-01-10T08:39:32.851Z,96704.90
2023-01-10T08:42:01.338Z,96714.81
2023-01-10T08:44:29.891Z,96722.74
2023-01-10T08:46:58.830Z,96730.93
2023-01-10T08:49:27.413Z,96737.60
2023-01-10T08:51:55.778Z,96746.91
2023-01-10T08:54:24.063Z,96757.33
2023-01-10T08:56:52.173Z,96762.70
2023-01-10T08:59:20.696Z,96760.51
2023-01-10T09:01:49.196Z,96764.42
2023-01-10T09:04:17.400Z,96766.10
2023-01-10T09:06:46.184Z,96768.61
2023-01-10T09:09:14.908Z,96768.34
2023-01-10T09:11:43.648Z,96774.98
2023-01-10T09:14:13.018Z,96778.58
2023-01-10T09:16:44.128Z,96780.77
2023-01-10T09:19:14.614Z,96781.52
2023-01-10T09:21:42.726Z,96782.49
2023-01-10T09:24:11.598Z,96785.05
2023-01-10T09:26:40.154Z,96788.96
2023-01-10T09:29:09.293Z,96788.40
2023-01-10T09:31:37.943Z,96786.20
2023-01-10T09:34:06.257Z,96785.09
2023-01-10T09:36:34.532Z,96782.18
2023-01-10T09:39:04.643Z,96782.70
2023-01-10T09:41:53.754Z,96786.44
2023-01-10T09:44:39.829Z,96783.25
2023-01-10T09:47:38.651Z,96779.59
2023-01-10T09:50:17.763Z,96781.20
2023-01-10T09:53:16.769Z,96781.42
2023-01-10T09:55:49.314Z,96793.89
2023-01-10T09:58:20.429Z,96791.63
2023-01-10T10:00:55.687Z,96797.30
2023-01-10T10:03:52.113Z,96800.48
2023-01-10T10:06:24.211Z,96806.59
2023-01-10T10:08:53.581Z,96805.50
2023-01-10T10:11:43.561Z,96804.62
2023-01-10T10:14:33.163Z,96800.44
2023-01-10T10:17:20.058Z,96799.66
2023-01-10T10:20:28.603Z,96800.48
2023-01-10T10:23:35.621Z,96804.33
2023-01-10T10:26:25.256Z,96809.96
2023-01-10T10:29:30.906Z,96811.20
2023-01-10T10:32:08.756Z,96806.71
2023-01-10T10:35:03.160Z,96809.42
2023-01-10T10:37:43.350Z,96809.70
2023-01-10T10:40:14.680Z,96807.40
2023-01-10T10:42:48.527Z,96810.89
2023-01-10T10:45:42.931Z,96814.55
2023-01-10T10:48:22.956Z,96818.10
2023-01-10T10:51:15.824Z,96824.38
2023-01-10T10:53:44.724Z,96822.81
2023-01-10T10:56:41.772Z,96823.20
2023-01-10T10:59:22.151Z,96821.86
2023-01-10T11:01:52.303Z,96814.96
2023-01-10T11:04:24.441Z,96814.55
2023-01-10T11:06:53.550Z,96809.59
2023-01-10T11:09:34.911Z,96800.95
2023-01-10T11:12:03.898Z,96798.02
2023-01-10T11:14:43.169Z,96800.23
2023-01-10T11:17:41.517Z,96807.02
2023-01-10T11:20:17.798Z,96809.31
2023-01-10T11:22:55.000Z,96818.06
2023-01-10T11:25:23.797Z,96830.05
2023-01-10T11:28:01.107Z,96832.84
2023-01-10T11:30:32.285Z,96836.05
2023-01-10T11:33:04.747Z,96837.87
2023-01-10T11:35:37.184Z,96838.15
2023-01-10T11:38:18.683Z,96831.35
2023-01-10T11:40:56.465Z,96835.04
2023-01-10T11:43:37.472Z,96835.50
2023-01-10T11:46:13.977Z,96830.19
2023-01-10T11:49:08.053Z,96834.45
2023-01-10T11:51:47.528Z,96838.90
2023-01-10T11:54:21.476Z,96838.46
2023-01-10T11:57:05.639Z,96833.63
2023-01-10T11:59:34.169Z,96837.89
2023-01-10T12:02:27.930Z,96840.82
2023-01-10T12:04:59.749Z,96842.98
2023-01-10T12:07:29.281Z,96843.77
2023-01-10T12:10:00.733Z,96843.70
2023-01-10T12:12:37.455Z,96844.80
2023-01-10T12:15:27.756Z,96847.23
2023-01-10T12:18:03.044Z,96849.39
2023-01-10T12:20:35.891Z,96849.23
2023-01-10T12:23:08.642Z,96852.34
2023-01-10T12:25:44.617Z,96860.67
2023-01-10T12:28:27.325Z,96859.17
2023-01-10T12:30:58.268Z,96859.55
2023-01-10T12:33:36.980Z,96857.21
2023-01-10T12:36:13.710Z,96856.66
2023-01-10T12:39:05.937Z,96854.45
2023-01-10T12:42:09.064Z,96853.17
2023-01-10T12:44:43.490Z,96852.77
2023-01-10T12:47:30.664Z,96855.82
2023-01-10T12:50:19.619Z,96860.02
2023-01-10T12:52:49.343Z,96865.59
2023-01-10T12:55:19.943Z,96873.15
2023-01-10T12:57:54.328Z,96876.98
2023-01-10T13:00:24.968Z,96880.83
2023-01-10T13:02:56.376Z,96889.05
2023-01-10T13:05:30.157Z,96893.67
2023-01-10T13:08:07.177Z,96897.05
2023-01-10T13:10:40.072Z,96895.96
2023-01-10T13:13:34.671Z,96894.02
2023-01-10T13:16:40.098Z,96897.02
2023-01-10T13:19:11.287Z,96900.27
2023-01-10T13:21:41.115Z,96907.25
2023-01-10T13:24:15.943Z,96912.27
2023-01-10T13:26:46.996Z,96907.83
2023-01-10T13:29:21.684Z,96907.79
2023-01-10T13:31:57.824Z,96911.75
2023-01-10T13:34:33.567Z,96918.23
2023-01-10T13:37:11.878Z,96920.58
2023-01-10T13:39:56.591Z,96922.88
2023-01-10T13:42:49.766Z,96917.34
2023-01-10T13:45:20.765Z,96915.61
2023-01-10T13:47:55.807Z,96917.34
2023-01-10T13:50:33.882Z,96918.40
2023-01-10T13:53:05.930Z,96920.55
2023-01-10T13:55:56.257Z,96924.59
2023-01-10T13:58:44.167Z,96930.44
2023-01-10T14:01:54.656Z,96934.77
2023-01-10T14:04:26.225Z,96933.16
2023-01-10T14:07:05.943Z,96929.19
2023-01-10T14:09:47.120Z,96926.05
2023-01-10T14:12:45.424Z,96925.31
2023-01-10T14:15:34.344Z,96926.84
2023-01-10T14:18:19.281Z,96928.77
2023-01-10T14:21:03.460Z,96930.95
2023-01-10T14:23:36.619Z,96935.65
2023-01-10T14:26:05.639Z,96946.21
2023-01-10T14:28:35.960Z,96950.56
2023-01-10T14:31:18.971Z,96954.91
2023-01-10T14:33:50.053Z,96951.52
2023-01-10T14:37:01.792Z,96949.71
2023-01-10T14:39:32.438Z,96953.80
2023-01-10T14:42:09.090Z,96955.04
2023-01-10T14:44:49.931Z,96959.23
2023-01-10T14:47:31.724Z,96958.44
2023-01-10T14:50:04.137Z,96960.83
2023-01-10T14:52:35.227Z,96960.00
2023-01-10T14:55:20.742Z,96958.89
2023-01-10T14:58:00.482Z,96955.23
2023-01-10T15:00:31.371Z,96950.91
2023-01-10T15:03:03.289Z,96951.07
2023-01-10T15:05:37.644Z,96951.39
2023-01-10T15:08:28.124Z,96955.73
2023-01-10T15:11:07.034Z,96960.63
2023-01-10T15:13:52.021Z,96962.80
2023-01-10T15:16:23.569Z,96968.34
2023-01-10T15:18:53.436Z,96975.09
2023-01-10T15:21:22.343Z,96979.11
2023-01-10T15:23:50.897Z,96981.27
2023-01-10T15:26:30.996Z,96982.38
2023-01-10T15:29:14.718Z,96986.84
2023-01-10T15:31:44.794Z,96990.84
2023-01-10T15:34:26.712Z,96987.42
2023-01-10T15:36:57.553Z,96989.88
2023-01-10T15:39:36.360Z,96991.76
2023-01-10T15:42:09.799Z,96995.66
2023-01-10T15:44:45.165Z,96997.69
2023-01-10T15:47:42.909Z,96996.05
2023-01-10T15:50:27.208Z,96995.65
2023-01-10T15:53:02.088Z,96996.75
2023-01-10T15:55:53.884Z,97000.88
2023-01-10T15:58:30.266Z,97014.23
2023-01-10T16:01:00.208Z,97020.89
2023-01-10T16:03:38.275Z,97030.78
2023-01-10T16:06:12.639Z,97030.42
2023-01-10T16:08:47.921Z,97033.84
2023-01-10T16:11:42.847Z,97039.30
2023-01-10T16:14:11.065Z,97042.48
2023-01-10T16:16:42.403Z,97042.66
2023-01-10T16:19:11.863Z,97047.98
2023-01-10T16:21:52.269Z,97050.88
2023-01-10T16:24:23.568Z,97057.17
2023-01-10T16:26:52.430Z,97060.59
2023-01-10T16:29:20.834Z,97066.52
2023-01-10T16:31:52.379Z,97067.15
2023-01-10T16:34:20.934Z,97065.98
2023-01-10T16:36:49.200Z,97068.91
2023-01-10T16:39:22.839Z,97073.77
2023-01-10T16:42:17.534Z,97074.36
2023-01-10T16:44:46.523Z,97073.86
2023-01-10T16:47:16.189Z,97075.46
2023-01-10T16:49:47.054Z,97075.36
2023-01-10T16:52:16.338Z,97072.42
2023-01-10T16:54:44.424Z,97075.07
2023-01-10T16:57:14.150Z,97075.34
2023-01-10T16:59:42.296Z,97074.05
2023-01-10T17:02:18.935Z,97075.84
2023-01-10T17:04:48.976Z,97081.61
2023-01-10T17:07:17.840Z,97084.44
2023-01-10T17:09:46.096Z,97084.41
2023-01-10T17:12:19.449Z,97089.64
2023-01-10T17:14:48.386Z,97087.96
2023-01-10T17:17:17.727Z,97091.55
2023-01-10T17:19:47.978Z,97084.54
2023-01-10T17:22:16.929Z,97085.15
2023-01-10T17:24:45.016Z,97085.12
2023-01-10T17:27:14.687Z,97081.83
2023-01-10T17:29:43.064Z,97088.86
2023-01-10T17:32:12.973Z,97096.13
2023-01-10T17:34:41.095Z,97092.71
2023-01-10T17:37:09.731Z,97091.93
2023-01-10T17:39:39.493Z,97089.90
2023-01-10T17:42:07.702Z,97090.34
2023-01-10T17:44:35.863Z,97088.20
2023-01-10T17:47:05.546Z,97093.02
2023-01-10T17:49:36.515Z,97094.27
2023-01-10T17:52:04.823Z,97093.15
2023-01-10T17:54:35.153Z,97087.86
2023-01-10T17:57:05.226Z,97092.20
2023-01-10T17:59:33.887Z,97099.23
2023-01-10T18:02:02.523Z,97101.16
2023-01-10T18:04:30.829Z,97104.16
2023-01-10T18:06:58.957Z,97100.74
2023-01-10T18:09:27.264Z,97096.59
2023-01-10T18:11:55.412Z,97093.45
2023-01-10T18:14:39.040Z,97096.64
2023-01-10T18:17:10.353Z,97095.55
2023-01-10T18:19:39.153Z,97101.79
2023-01-10T18:22:27.947Z,97098.42
2023-01-10T18:24:57.826Z,97097.20
2023-01-10T18:27:27.049Z,97098.36
2023-01-10T18:29:55.218Z,97096.79
2023-01-10T18:32:25.792Z,97094.48
2023-01-10T18:34:53.839Z,97097.05
2023-01-10T18:37:21.850Z,97103.08
2023-01-10T18:39:49.975Z,97105.36
2023-01-10T18:42:18.174Z,97105.27
2023-01-10T18:44:46.214Z,97107.77
2023-01-10T18:47:14.341Z,97109.25
2023-01-10T18:49:42.371Z,97112.55
2023-01-10T18:52:11.118Z,97115.62
2023-01-10T18:54:39.463Z,97123.20
2023-01-10T18:57:07.611Z,97126.28
2023-01-10T18:59:38.306Z,97124.91
2023-01-10T19:02:10.303Z,97128.55
2023-01-10T19:04:38.380Z,97125.30
2023-01-10T19:07:07.852Z,97126.82
2023-01-10T19:09:37.218Z,97136.66
2023-01-10T19:12:06.307Z,97138.52
2023-01-10T19:14:34.439Z,97137.36
2023-01-10T19:17:03.796Z,97139.61
2023-01-10T19:19:31.947Z,97138.48
2023-01-10T19:21:59.987Z,97137.36
2023-01-10T19:24:31.295Z,97138.74
2023-01-10T19:27:01.800Z,97137.63
2023-01-10T19:29:30.841Z,97144.55
2023-01-10T19:32:00.701Z,97146.19
2023-01-10T19:34:28.853Z,97148.32
2023-01-10T19:36:56.999Z,97150.29
2023-01-10T19:39:24.979Z,97152.14
2023-01-10T19:41:53.050Z,97160.70
2023-01-10T19:44:21.493Z,97161.38
2023-01-10T19:46:50.365Z,97166.59
2023-01-10T19:49:19.749Z,97169.08
2023-01-10T19:51:51.356Z,97167.80
2023-01-10T19:54:19.888Z,97170.02
2023-01-10T19:56:48.083Z,97179.30
2023-01-10T19:59:18.350Z,97180.21
2023-01-10T20:01:47.758Z,97186.45
2023-01-10T20:04:15.932Z,97187.13
2023-01-10T20:06:44.140Z,97186.11
2023-01-10T20:09:12.699Z,97184.64
2023-01-10T20:11:43.520Z,97182.92
2023-01-10T20:14:13.772Z,97177.32
2023-01-10T20:16:42.993Z,97181.30
2023-01-10T20:19:12.298Z,97177.89
2023-01-10T20:21:42.126Z,97173.52
2023-01-10T20:24:17.042Z,97171.07
2023-01-10T20:26:46.908Z,97169.76
2023-01-10T20:29:16.007Z,97175.75
2023-01-10T20:31:49.724Z,97174.27
2023-01-10T20:34:18.099Z,97167.17
2023-01-10T20:36:47.490Z,97168.66
2023-01-10T20:39:16.896Z,97169.41
2023-01-10T20:41:45.000Z,97165.63
2023-01-10T20:44:13.160Z,97171.04
2023-01-10T20:46:41.271Z,97172.36
2023-01-10T20:49:10.677Z,97172.13
2023-01-10T20:51:39.070Z,97169.58
2023-01-10T20:54:08.580Z,97171.18
2023-01-10T20:56:39.137Z,97173.08
2023-01-10T20:59:07.396Z,97175.24
2023-01-10T21:01:36.071Z,97182.38
2023-01-10T21:04:07.288Z,97190.98
2023-01-10T21:06:36.245Z,97198.95
2023-01-10T21:09:05.655Z,97210.14
2023-01-10T21:11:44.398Z,97217.86
2023-01-10T21:14:20.207Z,97216.83
2023-01-10T21:16:50.529Z,97213.68
2023-01-10T21:19:19.684Z,97207.02
2023-01-10T21:21:47.933Z,97206.80
2023-01-10T21:24:16.041Z,97212.55
2023-01-10T21:26:43.966Z,97211.23
2023-01-10T21:29:13.168Z,97216.10
2023-01-10T21:31:41.628Z,97215.46
2023-01-10T21:34:09.881Z,97220.12
2023-01-10T21:36:38.317Z,97221.79
2023-01-10T21:39:06.346Z,97219.70
2023-01-10T21:41:53.106Z,97217.57
2023-01-10T21:44:21.063Z,97219.52
2023-01-10T21:46:51.345Z,97224.27
2023-01-10T21:49:21.361Z,97226.08
2023-01-10T21:51:49.589Z,97230.38
2023-01-10T21:54:17.626Z,97230.11
2023-01-10T21:56:45.739Z,97229.23
2023-01-10T21:59:13.864Z,97226.54
2023-01-10T22:01:42.244Z,97226.48
2023-01-10T22:04:10.567Z,97229.59
2023-01-10T22:06:38.722Z,97229.09
2023-01-10T22:09:06.784Z,97225.27
2023-01-10T22:11:34.772Z,97223.25
2023-01-10T22:14:02.982Z,97216.69
2023-01-10T22:16:31.020Z,97215.29
2023-01-10T22:18:59.223Z,97216.61
2023-01-10T22:21:27.235Z,97223.20
2023-01-10T22:23:55.344Z,97232.95
2023-01-10T22:26:23.402Z,97239.89
2023-01-10T22:28:51.406Z,97247.83
2023-01-10T22:31:19.463Z,97249.70
2023-01-10T22:33:47.629Z,97253.38
2023-01-10T22:36:19.889Z,97254.95
2023-01-10T22:38:48.912Z,97256.09
2023-01-10T22:41:21.267Z,97251.12
2023-01-10T22:43:49.324Z,97250.66
2023-01-10T22:46:17.411Z,97258.80
2023-01-10T22:48:45.779Z,97270.70
2023-01-10T22:51:16.101Z,97278.73
2023-01-10T22:53:53.219Z,97282.27
2023-01-10T22:56:21.554Z,97283.51
2023-01-10T22:58:49.656Z,97280.85
2023-01-10T23:01:21.474Z,97282.53
2023-01-10T23:03:49.782Z,97284.14
2023-01-10T23:06:18.844Z,97282.73
2023-01-10T23:08:47.768Z,97280.14
2023-01-10T23:11:17.729Z,97280.67
2023-01-10T23:13:47.019Z,97271.77
2023-01-10T23:16:28.742Z,97280.30
2023-01-10T23:18:57.945Z,97280.66
2023-01-10T23:21:29.312Z,97275.33
2023-01-10T23:23:57.395Z,97272.64
2023-01-10T23:26:25.347Z,97269.04
2023-01-10T23:28:53.323Z,97262.27
2023-01-10T23:31:24.093Z,97263.73
2023-01-10T23:33:52.312Z,97266.09
2023-01-10T23:36:20.444Z,97266.06
2023-01-10T23:38:48.522Z,97270.46
2023-01-10T23:41:16.632Z,97272.98
2023-01-10T23:43:44.578Z,97278.91
2023-01-10T23:46:12.484Z,97286.59
2023-01-10T23:48:40.851Z,97289.77
2023-01-10T23:51:11.501Z,97294.44
2023-01-10T23:53:40.290Z,97298.37
2023-01-10T23:56:14.808Z,97302.00
2023-01-10T23:58:43.115Z,97293.30
